Overview Statistics Trail Chart Weather Telemetry Raw packets
 

This is the latest recevied weather packets stored in our database for station/object KO4LCK. If no packets are shown the sender has not sent any weather packets the latest 10 day(s).

<< 102 103 104 105 106 107 108 >>
Time Temp. Humidity Pressure Rain* Wind** Luminosity Snow
1787859531 32.78° C 54% 1015 hPa 0 mm - 342 W/m² -
1787859225 33.89° C 51% 1015.4 hPa 0 mm - 210 W/m² -
1787858922 33.89° C 48% 1015.5 hPa 0 mm - 519 W/m² -
1787858617 33.89° C 51% 1015.6 hPa 0 mm - 330 W/m² -
1787858317 33.33° C 52% 1015.6 hPa 0 mm - 623 W/m² -
1787858007 33.33° C 54% 1015.5 hPa 0 mm - 668 W/m² -
1787857703 33.33° C 51% 1015.8 hPa 0 mm - 519 W/m² -
1787857399 33.89° C 49% 1015.7 hPa 0 mm - 416 W/m² -
1787857097 33.33° C 53% 1015.8 hPa 0 mm - 621 W/m² -
1787856799 33.33° C 53% 1015.9 hPa 0 mm - 604 W/m² -
1787856486 32.78° C 56% 1015.9 hPa 0 mm - 736 W/m² -
1787856182 33.33° C 54% 1015.9 hPa 0 mm - 413 W/m² -
1787855881 33.33° C 54% 1016 hPa 0 mm - 505 W/m² -
1787855579 33.33° C 54% 1015.9 hPa 0 mm - 452 W/m² -
1787855272 32.22° C 56% 1016 hPa 0 mm - 823 W/m² -
1787854968 31.67° C 58% 1016.1 hPa 0 mm - 276 W/m² -
1787854663 31.11° C 57% 1016.1 hPa 0 mm - 245 W/m² -
1787854356 31.11° C 57% 1016.3 hPa 0 mm - 542 W/m² -
1787854051 31.67° C 55% 1016.1 hPa 0 mm - 235 W/m² -
1787853751 31.67° C 56% 1016 hPa 0 mm - 863 W/m² -
1787853451 32.78° C 53% 1016.4 hPa 0 mm - 251 W/m² -
1787853150 32.78° C 55% 1016.4 hPa 0 mm - 806 W/m² -
1787852845 31.67° C 61% 1016.6 hPa 0 mm - 849 W/m² -
1787852545 31.11° C 61% 1016.6 hPa 0 mm - 310 W/m² -
1787852244 32.22° C 54% 1016.5 hPa 0 mm - 269 W/m² -

* Rain latest hour (hover to see other rain measurements)
** Current wind speed in m/s (hover to see current wind gust speed)